Nearby METAR Reports

 

KHCR - Heber/Russ Mcdon, Utah, USA
Distance from station: SSW 18mi, 29km
Updated: Fri, 23-Jul-2021 5:15pm MDT
Clear
Clear
 Wind from SW
Wind: SW 7 mph , 11 km/h
Temperature: 82°F , 28°C
Dew Point: 52°F , 11°C
Humidity: 35%
Barometer: 30.22 inHg , 1023.4 hPa
Clouds: Clear
Visibility: 10 miles , 16 km
2021/07/23 23:15 KHCR 232315Z AUTO 22006KT 10SM CLR 28/11 A3022 RMK AO2
KSLC - Salt Lake City, Utah, USA
Distance from station: W 35mi, 57km
Updated: Fri, 23-Jul-2021 5:20pm MDT
unable to load KSLC data RC=
unable to load KSLC data RC=
 
 
KU42 - Salt Lake Muni, Utah, USA
Distance from station: WSW 37mi, 59km
Updated: Fri, 23-Jul-2021 5:15pm MDT
Clear
Clear
 Wind from NNW
Wind: NNW 10 mph , 17 km/h
Temperature: 90°F , 32°C
Heat Index: 91°F , 33°C
Dew Point: 63°F , 17°C
Humidity: 41%
Barometer: 30.13 inHg , 1020.3 hPa
Clouds: Clear
Visibility: 10 miles , 16 km
2021/07/23 23:15 KU42 232315Z AUTO 33009KT 10SM CLR 32/17 A3013 RMK AO1 T03200167
KEVW - Evanston, Wyoming, USA
Distance from station: NNE 40mi, 64km
Updated: Fri, 23-Jul-2021 4:53pm MDT
Partly cloudy
Partly cloudy
 Wind from NE
Wind: NE 14 mph , 22 km/h, Gust: 21 mph , 33 km/h
Temperature: 86°F , 30°C
Dew Point: 43°F , 6°C
Humidity: 22%
Barometer: 30.32 inHg , 1026.8 hPa
Clouds: Partly cloudy
Visibility: 10 miles , 16 km
Cloud details: Partly cloudy 10000 ft
2021/07/23 22:53 KEVW 232253Z AUTO 04012G18KT 10SM SCT100 30/06 A3032 RMK AO2 SLP160 T03000061 $
 
KPVU - Provo Muni, Utah, USA
Distance from station: SSW 41mi, 67km
Updated: Fri, 23-Jul-2021 5:08pm MDT
Nearby thunderstorm, Mostly cloudy
Nearby thunderstorm, Mostly cloudy
 Wind from E
Wind: E 10 mph , 17 km/h
Temperature: 88°F , 31°C
Dew Point: 54°F , 12°C
Humidity: 31%
Barometer: 30.13 inHg , 1020.3 hPa
Summary: Nearby Thunderstorm
Clouds: Mostly cloudy
Visibility: 10 miles , 16 km
Cloud details: Mostly cloudy 9500 ft
2021/07/23 23:08 KPVU 232308Z 09009KT 10SM VCTS BKN095 31/12 A3013 RMK AO2 LTG DSNT W TSB02
KHIF - Hill Afb/Ogden, Utah, USA
Distance from station: NW 45mi, 72km
Updated: Fri, 23-Jul-2021 2:58pm MDT
NOT Current
Clear
Clear
 Wind from NW
Wind: NW 6 mph , 9 km/h
Temperature: 90°F , 32°C
Dew Point: 54°F , 12°C
Humidity: 29%
Barometer: 30.16 inHg , 1021.3 hPa
Clouds: Clear
Visibility: 10 miles , 16 km
2021/07/23 20:58 KHIF 232058Z 32005KT 10SM CLR 32/12 A3016 RMK AO2 SLP146 T03190116 57014
 
KOGD - Ogden, Utah, USA
Distance from station: NW 50mi, 81km
Updated: Fri, 23-Jul-2021 4:53pm MDT
Clear
Clear
 Wind from NNW
Wind: NNW 8 mph , 13 km/h
Temperature: 91°F , 33°C
Dew Point: 54°F , 12°C
Humidity: 28%
Barometer: 30.11 inHg , 1019.6 hPa
Clouds: Clear
Visibility: 10 miles , 16 km
2021/07/23 22:53 KOGD 232253Z 33007KT 10SM CLR 33/12 A3011 RMK AO2 SLP127 T03330122